Terminal Aerodrome Forecast
Issued by NWS

Home | Current Version | Previous Version | Graphics & Text | Print | Product List | Glossary On
Versions: 1 2 3 4 5 6 7 8 9 10 11 12 13 14 15 16 17 18 19 20
000
FTUS42 KMHX 251120
TAFOAJ
TAF
KOAJ 251120Z 2512/2612 22005KT P6SM FEW060
      TEMPO 2512/2513 5SM BR
     FM251500 23007KT P6SM VCSH SCT080
     FM251800 24008KT P6SM SHRA VCTS BKN040CB
     FM252100 27008KT P6SM SCT040
      AMD LTD TO CLD VIS AND WIND=

USA.gov is the U.S. government's official web portal to all federal, state and local government web resources and services.